Pittsboro, NC

10:33 PM EST on March 02, 2015 (GMT -0500)
Raleigh-Durham International | Change Station
CLOSE
Current Station
Airport
Location: Raleigh-Durham Airport,
Elevation: 436 ft
Nearby Weather Stations

Elev 436 ft 35.89 °N, 78.78 °W | Updated 42 minutes ago

Partly Cloudy
Partly Cloudy
41 °F
Feels Like 38 °F
N
5
Wind Variable Wind from NE

Today
High -- | Low -- °F
--% Chance of Precip.
Yesterday
High -- | Low -- °F
Precip. -- in
6:45 AM 6:12 PM
Waxing Gibbous, 94% visible
Pressure 30.35 in
Visibility 10.0 miles
Clouds Few 25000 ft
Windchill 38 °F
Dew Point 24 °F
Humidity 51%
Rainfall 0.00 in
Snow Depth Not available.
UV 0 out of 12
Pollen 7.30 out of 12
Air Quality Not available.
Flu Activity Not available.
METAR KRDU 030251Z 05004KT 10SM FEW250 05/M04 A3034 RMK AO2 SLP275 T00501044 53017

More Conditions Fewer Conditions

Pressure 30.35 in
Visibility 10.0 miles
Clouds Few 25000 ft
Windchill 38 °F
Dew Point 24 °F
Humidity 51%
Rainfall 0.00 in
Snow Depth Not available.
UV 0 out of 12
Pollen 7.30 out of 12
Air Quality Not available.
Flu Activity Not available.
METAR KRDU 030251Z 05004KT 10SM FEW250 05/M04 A3034 RMK AO2 SLP275 T00501044 53017

More Conditions Fewer Conditions

10-Day Weather Forecast

Almanac

Astronomy

Mar. 02, 2015 Rise Set
Actual Time
Civil Twilight
Nautical Twilight
Astronomical Twilight
Moon
Length of Visible Light
Length of Day
Tomorrow will be .
, % of the Moon is Illuminated

Today's Extremes

State Highs State Lows

Community

WunderPhotos

Upload Photos

1,802,060 photos uploaded!

WunderBlogs® & News

Nearby

Air Quality

  Air Quality AQ Index Pollutant
Not available.

Snow Depth

Station Depth Elevation

Earthquake Activity

City Distance Mag. Time & Date
Minimum magnitude displayed is 2.5.

Coastal Water Temperatures

Place Temperature

Nearby Weather Stations